Time;durP1;ratioP1;P1;durP2;ratioP2;P2;SDS_P1;SDS_P2;PMS_P1;PMS_P2;Temp;Humidity;BMP_temperature;BMP_pressure;BME280_temperature;BME280_humidity;BME280_pressure;Samples;Min_cycle;Max_cycle;Signal;HPM_P1;HPM_P2
2023/03/16 00:01:36;;;;;;;18.77;7.32;;;1.20;88.70;;;;;;5013235;28;20602;-81
2023/03/16 00:04:02;;;;;;;15.55;7.22;;;1.20;88.70;;;;;;5033622;28;20166;-81
2023/03/16 00:06:27;;;;;;;50.63;9.30;;;1.20;88.80;;;;;;5030777;28;20132;-81
2023/03/16 00:08:57;;;;;;;63.53;9.00;;;1.20;88.80;;;;;;5031481;28;20697;-79
2023/03/16 00:11:24;;;;;;;42.40;7.78;;;1.20;88.80;;;;;;5027904;28;20038;-79
2023/03/16 00:13:50;;;;;;;15.43;6.72;;;1.30;88.80;;;;;;5013817;28;20532;-79
2023/03/16 00:16:15;;;;;;;16.00;6.40;;;1.30;88.80;;;;;;5028212;28;20033;-79
2023/03/16 00:18:41;;;;;;;11.63;6.57;;;1.30;88.90;;;;;;5012981;28;20342;-80
2023/03/16 00:21:07;;;;;;;23.23;6.53;;;1.30;89.00;;;;;;4996539;28;20042;-80
2023/03/16 00:23:34;;;;;;;34.03;6.88;;;1.30;89.00;;;;;;4993008;28;20076;-79
2023/03/16 00:26:02;;;;;;;12.90;5.85;;;1.30;89.00;;;;;;4994448;28;20056;-79
2023/03/16 00:28:27;;;;;;;24.40;6.72;;;1.30;89.00;;;;;;5000834;28;20034;-80
2023/03/16 00:30:57;;;;;;;10.68;5.97;;;1.30;89.90;;;;;;4990678;28;20609;-78
2023/03/16 00:33:24;;;;;;;25.98;6.88;;;1.30;89.20;;;;;;5005699;28;20155;-80
2023/03/16 00:35:49;;;;;;;11.23;5.18;;;1.30;89.20;;;;;;5013653;28;20045;-78
2023/03/16 00:38:18;;;;;;;11.88;5.88;;;1.30;89.20;;;;;;5011319;28;20041;-81
2023/03/16 00:40:43;;;;;;;43.78;7.20;;;1.30;89.20;;;;;;4997616;28;20037;-81
2023/03/16 00:43:09;;;;;;;46.03;6.97;;;1.30;89.20;;;;;;4996099;28;20047;-79
2023/03/16 00:45:35;;;;;;;10.02;5.53;;;1.30;89.20;;;;;;5031814;28;20102;-80
2023/03/16 00:48:00;;;;;;;19.92;5.97;;;1.30;89.20;;;;;;5016600;28;20639;-80
2023/03/16 00:50:26;;;;;;;9.98;5.70;;;1.30;89.30;;;;;;5017153;28;20036;-79
2023/03/16 00:52:52;;;;;;;12.10;5.35;;;1.30;89.40;;;;;;5019024;28;20030;-80
2023/03/16 00:55:18;;;;;;;18.23;5.00;;;1.30;89.40;;;;;;5013798;28;20033;-80
2023/03/16 00:57:44;;;;;;;16.65;5.30;;;1.40;89.50;;;;;;4984984;28;20064;-82
2023/03/16 01:00:15;;;;;;;20.40;5.40;;;1.40;89.50;;;;;;4998871;28;20037;-79
2023/03/16 01:02:41;;;;;;;11.85;4.65;;;1.40;89.50;;;;;;5013564;28;20034;-81
2023/03/16 01:05:08;;;;;;;13.52;5.03;;;1.30;89.40;;;;;;4995868;28;20063;-81
2023/03/16 01:07:35;;;;;;;9.77;5.30;;;1.40;89.50;;;;;;5027212;28;20029;-80
2023/03/16 01:10:00;;;;;;;9.48;4.60;;;1.40;89.60;;;;;;5036607;28;20036;-79
2023/03/16 01:12:26;;;;;;;33.30;6.28;;;1.40;89.60;;;;;;4988435;28;20045;-80
2023/03/16 01:14:52;;;;;;;31.40;6.35;;;1.40;89.60;;;;;;5019813;28;20030;-80
2023/03/16 01:17:18;;;;;;;23.52;5.45;;;1.40;90.10;;;;;;5013674;28;20169;-80
2023/03/16 01:19:43;;;;;;;24.00;5.43;;;1.30;89.50;;;;;;5006501;28;20026;-81
2023/03/16 01:22:10;;;;;;;28.25;5.45;;;1.30;89.40;;;;;;5017211;28;20046;-79
2023/03/16 01:24:36;;;;;;;48.55;6.53;;;1.30;89.50;;;;;;5025452;28;20040;-80
2023/03/16 01:27:03;;;;;;;44.33;7.25;;;1.30;89.60;;;;;;5017618;28;20042;-82
2023/03/16 01:29:29;;;;;;;60.42;9.77;;;1.20;89.60;;;;;;5020122;28;20080;-81
2023/03/16 01:31:54;;;;;;;17.42;5.57;;;1.30;89.60;;;;;;5019933;28;20130;-79
2023/03/16 01:34:20;;;;;;;15.98;5.57;;;1.20;89.70;;;;;;5018730;28;20057;-79
2023/03/16 01:36:46;;;;;;;26.05;6.43;;;1.20;89.70;;;;;;4993832;28;20053;-81
2023/03/16 01:39:12;;;;;;;14.73;5.85;;;1.30;89.90;;;;;;4982988;28;20037;-81
2023/03/16 01:41:38;;;;;;;14.43;5.40;;;1.30;89.80;;;;;;4984023;28;20175;-80
2023/03/16 01:44:04;;;;;;;40.63;6.22;;;1.30;89.90;;;;;;4994399;28;20077;-81
2023/03/16 01:46:30;;;;;;;16.73;6.50;;;1.30;89.90;;;;;;5002714;28;20499;-79
2023/03/16 01:49:04;;;;;;;34.60;6.03;;;1.30;89.90;;;;;;5006798;28;20037;-79
2023/03/16 01:51:42;;;;;;;8.73;5.28;;;1.30;90.00;;;;;;5017642;28;20049;-81
2023/03/16 01:54:13;;;;;;;9.73;4.90;;;1.30;89.90;;;;;;4997687;28;20040;-81
2023/03/16 01:56:48;;;;;;;20.15;6.05;;;1.30;90.00;;;;;;5027701;28;20037;-80
2023/03/16 01:59:15;;;;;;;17.50;5.57;;;1.30;90.00;;;;;;5010081;28;20041;-81
2023/03/16 02:01:40;;;;;;;13.10;5.22;;;1.30;90.00;;;;;;5042670;28;20033;-79
2023/03/16 02:04:12;;;;;;;13.55;5.35;;;1.40;90.00;;;;;;4988599;28;20033;-80
2023/03/16 02:06:38;;;;;;;38.38;6.55;;;1.40;90.00;;;;;;4976309;28;20580;-79
2023/03/16 02:09:04;;;;;;;27.85;5.22;;;1.40;90.00;;;;;;5004704;28;20029;-81
2023/03/16 02:11:30;;;;;;;13.95;5.22;;;1.40;90.00;;;;;;4993149;28;20175;-82
2023/03/16 02:13:56;;;;;;;20.25;5.03;;;1.40;90.00;;;;;;5013800;28;20057;-79
2023/03/16 02:16:22;;;;;;;36.55;5.45;;;1.40;90.00;;;;;;5015067;28;20042;-79
2023/03/16 02:18:48;;;;;;;16.73;5.38;;;1.40;90.00;;;;;;4995829;28;20563;-82
2023/03/16 02:21:32;;;;;;;12.43;5.20;;;1.40;90.00;;;;;;5013134;28;20720;-80
2023/03/16 02:23:57;;;;;;;17.17;4.10;;;1.40;90.10;;;;;;4998141;28;20475;-79
2023/03/16 02:26:43;;;;;;;25.40;4.28;;;1.40;90.00;;;;;;4998475;28;20103;-80
2023/03/16 02:29:26;;;;;;;11.05;4.50;;;1.40;90.10;;;;;;4972951;28;20041;-80
2023/03/16 02:31:52;;;;;;;14.23;4.68;;;1.30;90.00;;;;;;5029516;28;20156;-80
2023/03/16 02:34:18;;;;;;;9.05;4.03;;;1.30;90.00;;;;;;5002706;28;20117;-81
2023/03/16 02:36:44;;;;;;;9.15;4.38;;;1.40;90.00;;;;;;5001570;28;20036;-79
2023/03/16 02:39:09;;;;;;;17.23;4.57;;;1.40;90.10;;;;;;5017056;28;20052;-79
2023/03/16 02:41:35;;;;;;;8.60;4.55;;;1.40;90.10;;;;;;5028335;28;20049;-80
2023/03/16 02:44:06;;;;;;;10.77;4.00;;;1.40;90.10;;;;;;5016358;28;20032;-81
2023/03/16 02:46:34;;;;;;;30.93;5.03;;;1.40;90.10;;;;;;5004188;28;20116;-80
2023/03/16 02:49:25;;;;;;;9.90;4.38;;;1.40;90.10;;;;;;5000785;28;20041;-81
2023/03/16 02:51:51;;;;;;;7.40;4.50;;;1.40;90.10;;;;;;5020188;28;20030;-79
2023/03/16 02:54:16;;;;;;;7.47;3.80;;;1.40;90.10;;;;;;5036788;28;20871;-81
2023/03/16 02:56:42;;;;;;;13.10;4.80;;;1.40;90.10;;;;;;5018254;28;20032;-80
2023/03/16 02:59:07;;;;;;;6.22;3.70;;;1.40;90.10;;;;;;5016155;28;20115;-82
2023/03/16 03:01:36;;;;;;;9.02;4.32;;;1.40;90.00;;;;;;5015528;28;20037;-79
2023/03/16 03:04:02;;;;;;;6.32;3.90;;;1.40;90.10;;;;;;5007648;28;20046;-80
2023/03/16 03:06:28;;;;;;;7.22;4.65;;;1.40;90.10;;;;;;5015826;28;20544;-81
2023/03/16 03:08:53;;;;;;;35.35;4.85;;;1.30;90.00;;;;;;5010674;28;20083;-79
2023/03/16 03:11:19;;;;;;;17.48;5.35;;;1.30;90.00;;;;;;4998095;28;20806;-80
2023/03/16 03:13:45;;;;;;;25.80;5.63;;;1.30;90.00;;;;;;4995989;28;20046;-81
2023/03/16 03:16:11;;;;;;;14.18;4.97;;;1.30;90.00;;;;;;4995787;28;20552;-80
2023/03/16 03:18:37;;;;;;;15.57;4.82;;;1.30;90.00;;;;;;5029528;28;20041;-80
2023/03/16 03:21:02;;;;;;;13.45;4.75;;;1.20;90.00;;;;;;5002469;28;20052;-81
2023/03/16 03:23:28;;;;;;;14.68;5.45;;;1.20;90.00;;;;;;5012985;28;20149;-80
2023/03/16 03:25:57;;;;;;;8.32;4.90;;;1.20;90.00;;;;;;5017311;28;20076;-80
2023/03/16 03:28:23;;;;;;;7.82;4.60;;;1.20;90.00;;;;;;4953985;28;20069;-81
2023/03/16 03:30:48;;;;;;;10.95;5.13;;;1.20;90.00;;;;;;4979239;28;20034;-79
2023/03/16 03:33:14;;;;;;;15.52;5.65;;;1.20;90.00;;;;;;4999427;28;20072;-81
2023/03/16 03:35:40;;;;;;;10.05;4.80;;;1.20;90.00;;;;;;4988966;28;20040;-80
2023/03/16 03:38:07;;;;;;;18.00;5.10;;;1.20;90.00;;;;;;5010346;28;20052;-80
2023/03/16 03:40:32;;;;;;;10.10;4.82;;;1.20;90.00;;;;;;5012733;28;20037;-79
2023/03/16 03:42:58;;;;;;;14.38;5.40;;;1.20;90.00;;;;;;4991803;28;20141;-80
2023/03/16 03:45:24;;;;;;;9.77;5.03;;;1.20;90.00;;;;;;5014163;28;20041;-81
2023/03/16 03:47:49;;;;;;;7.55;4.97;;;1.20;90.00;;;;;;4997608;28;20511;-80
2023/03/16 03:50:15;;;;;;;11.02;5.80;;;1.10;90.00;;;;;;5004474;28;20030;-79
2023/03/16 03:52:40;;;;;;;8.93;4.63;;;1.10;90.00;;;;;;4995926;28;20056;-80
2023/03/16 03:55:06;;;;;;;10.63;5.60;;;1.10;90.00;;;;;;5033572;28;20041;-81
2023/03/16 03:57:32;;;;;;;8.88;4.57;;;1.10;90.00;;;;;;5016975;28;20044;-81
2023/03/16 03:59:57;;;;;;;14.65;5.40;;;1.10;90.10;;;;;;5017112;28;20033;-82
2023/03/16 04:02:23;;;;;;;12.45;5.30;;;1.10;90.10;;;;;;4998645;28;20048;-80
2023/03/16 04:04:49;;;;;;;9.82;5.32;;;1.10;90.10;;;;;;5005191;28;20037;-80
2023/03/16 04:07:14;;;;;;;10.60;5.35;;;1.10;90.00;;;;;;5012352;28;20057;-80
2023/03/16 04:09:40;;;;;;;6.95;4.75;;;1.10;90.10;;;;;;4984608;28;20077;-82
2023/03/16 04:12:06;;;;;;;18.15;5.95;;;1.10;90.10;;;;;;5006467;28;20110;-81
2023/03/16 04:14:32;;;;;;;16.73;6.28;;;1.10;90.10;;;;;;4989256;28;20184;-81
2023/03/16 04:16:57;;;;;;;11.18;5.05;;;1.10;90.10;;;;;;4995078;28;20874;-80
2023/03/16 04:19:23;;;;;;;10.98;5.93;;;1.10;90.10;;;;;;4995455;28;20501;-79
2023/03/16 04:21:49;;;;;;;12.65;6.10;;;1.10;90.10;;;;;;5010852;28;20099;-79
2023/03/16 04:24:15;;;;;;;11.00;6.03;;;1.10;90.10;;;;;;5013991;28;20041;-82
2023/03/16 04:26:43;;;;;;;11.65;6.15;;;1.10;90.10;;;;;;5003186;28;20048;-82
2023/03/16 04:29:09;;;;;;;15.40;6.22;;;1.10;90.10;;;;;;4991851;28;20045;-80
2023/03/16 04:31:35;;;;;;;11.63;5.70;;;1.10;90.10;;;;;;4993263;28;20043;-81
2023/03/16 04:34:01;;;;;;;19.95;5.97;;;1.10;90.10;;;;;;4983111;28;20029;-81
2023/03/16 04:36:27;;;;;;;12.82;6.80;;;1.10;90.10;;;;;;4994916;28;20054;-79
2023/03/16 04:38:52;;;;;;;66.15;22.48;;;1.10;90.10;;;;;;4978752;28;20068;-79
2023/03/16 04:41:18;;;;;;;264.70;80.43;;;1.10;90.10;;;;;;5013270;28;20501;-80
2023/03/16 04:43:43;;;;;;;44.38;18.50;;;1.10;90.10;;;;;;5008282;28;20044;-81
2023/03/16 04:46:09;;;;;;;58.85;21.35;;;1.10;90.10;;;;;;5010716;28;20604;-79
2023/03/16 04:48:34;;;;;;;33.55;12.75;;;1.10;90.10;;;;;;4978690;28;20034;-81
2023/03/16 04:51:00;;;;;;;31.30;12.95;;;1.10;90.10;;;;;;5009058;28;20104;-81
2023/03/16 04:53:26;;;;;;;28.42;11.63;;;1.10;90.10;;;;;;4995833;28;20042;-80
2023/03/16 04:55:52;;;;;;;24.90;10.25;;;1.10;90.10;;;;;;5009843;28;20032;-80
2023/03/16 04:58:17;;;;;;;62.70;19.75;;;1.10;90.20;;;;;;5017345;28;20466;-79
2023/03/16 05:00:43;;;;;;;60.05;19.17;;;1.10;90.20;;;;;;5015421;28;20615;-79
2023/03/16 05:03:09;;;;;;;22.33;9.55;;;1.10;90.20;;;;;;5006620;28;20037;-82
2023/03/16 05:05:38;;;;;;;25.63;9.43;;;1.10;90.20;;;;;;4998213;28;20610;-80
2023/03/16 05:08:05;;;;;;;18.90;8.60;;;1.10;90.20;;;;;;5020654;28;20038;-79
2023/03/16 05:10:31;;;;;;;18.42;7.95;;;1.10;90.20;;;;;;5015423;28;20041;-81
2023/03/16 05:12:56;;;;;;;25.25;9.75;;;1.10;90.20;;;;;;5036204;28;20102;-81
2023/03/16 05:15:22;;;;;;;14.02;8.30;;;1.10;90.10;;;;;;5035315;28;20087;-80
2023/03/16 05:17:47;;;;;;;16.67;8.32;;;1.10;90.10;;;;;;5014033;28;20060;-80
2023/03/16 05:20:13;;;;;;;19.65;8.52;;;1.10;90.10;;;;;;5036804;28;20052;-81
2023/03/16 05:22:40;;;;;;;15.30;7.95;;;1.10;90.10;;;;;;5035578;28;20034;-80
2023/03/16 05:25:06;;;;;;;13.23;7.85;;;1.10;90.20;;;;;;5034995;28;20041;-81
2023/03/16 05:27:31;;;;;;;15.55;9.27;;;1.10;90.20;;;;;;5017914;28;20049;-81
2023/03/16 05:29:57;;;;;;;13.35;8.05;;;1.00;90.20;;;;;;5014361;28;20057;-81
2023/03/16 05:32:23;;;;;;;16.42;8.38;;;1.00;90.10;;;;;;5029179;28;20080;-81
2023/03/16 05:34:48;;;;;;;18.80;8.80;;;1.10;90.20;;;;;;5032201;28;20068;-80
2023/03/16 05:37:14;;;;;;;10.95;7.10;;;1.10;90.20;;;;;;5031627;28;20751;-81
2023/03/16 05:39:39;;;;;;;26.10;9.80;;;1.10;90.20;;;;;;5032559;28;20033;-81
2023/03/16 05:42:05;;;;;;;17.40;9.50;;;1.10;90.20;;;;;;5034232;28;20040;-81
2023/03/16 05:44:32;;;;;;;19.35;9.65;;;1.00;90.10;;;;;;5031068;28;20033;-80
2023/03/16 05:46:57;;;;;;;15.60;7.45;;;1.10;90.20;;;;;;5001003;28;20048;-78
2023/03/16 05:49:23;;;;;;;20.13;8.68;;;1.00;90.20;;;;;;5016591;28;20044;-81
2023/03/16 05:51:49;;;;;;;13.85;8.40;;;1.00;90.20;;;;;;4998093;28;20034;-80
2023/03/16 05:54:14;;;;;;;19.83;9.57;;;1.00;90.20;;;;;;5031694;28;20071;-80
2023/03/16 05:56:40;;;;;;;14.82;8.85;;;1.00;90.20;;;;;;5025788;28;20519;-80
2023/03/16 05:59:06;;;;;;;13.10;7.60;;;1.00;90.20;;;;;;5037742;28;20037;-80
2023/03/16 06:01:32;;;;;;;20.75;9.38;;;1.00;90.20;;;;;;5034546;28;20045;-80
2023/03/16 06:03:58;;;;;;;17.90;9.15;;;1.00;90.20;;;;;;5015380;28;20742;-82
2023/03/16 06:06:24;;;;;;;26.55;9.00;;;1.00;90.20;;;;;;5019436;28;20079;-82
2023/03/16 06:08:49;;;;;;;16.98;7.95;;;1.00;90.20;;;;;;5036091;28;20029;-79
2023/03/16 06:11:15;;;;;;;24.08;8.55;;;1.00;90.20;;;;;;5034679;28;20033;-80
2023/03/16 06:13:40;;;;;;;21.30;8.95;;;1.00;90.20;;;;;;5033272;28;20048;-80
2023/03/16 06:16:06;;;;;;;13.32;8.15;;;1.00;90.10;;;;;;5032987;28;20029;-81
2023/03/16 06:18:32;;;;;;;12.75;7.30;;;1.00;90.10;;;;;;5038094;28;20527;-80
2023/03/16 06:20:58;;;;;;;11.85;7.65;;;1.00;90.20;;;;;;5014016;28;20053;-81
2023/03/16 06:23:24;;;;;;;18.08;9.57;;;0.90;90.20;;;;;;5021121;28;20044;-81
2023/03/16 06:25:49;;;;;;;15.93;9.57;;;0.90;90.20;;;;;;5025669;28;20064;-80
2023/03/16 06:28:15;;;;;;;15.10;8.32;;;0.90;90.20;;;;;;5031628;28;20637;-81
2023/03/16 06:30:41;;;;;;;18.92;8.52;;;0.90;90.20;;;;;;5014487;28;20063;-81
2023/03/16 06:33:06;;;;;;;14.52;8.80;;;0.90;90.20;;;;;;5036512;28;20037;-81
2023/03/16 06:35:32;;;;;;;14.50;8.15;;;0.90;90.20;;;;;;5037879;28;20056;-80
2023/03/16 06:37:58;;;;;;;17.00;9.05;;;0.90;90.60;;;;;;5017647;28;20045;-81
2023/03/16 06:40:23;;;;;;;14.95;8.50;;;0.90;90.30;;;;;;5023513;28;20069;-82
2023/03/16 06:42:49;;;;;;;12.80;7.93;;;0.90;90.30;;;;;;5002539;28;20045;-80
2023/03/16 06:45:15;;;;;;;15.77;8.73;;;0.90;90.30;;;;;;5026383;28;20037;-81
2023/03/16 06:47:42;;;;;;;16.05;8.65;;;1.00;90.30;;;;;;5012580;28;20686;-79
2023/03/16 06:50:08;;;;;;;18.50;8.55;;;1.00;90.30;;;;;;5014813;28;20765;-81
2023/03/16 06:52:34;;;;;;;16.75;9.65;;;1.00;90.30;;;;;;5008669;28;20036;-81
2023/03/16 06:55:00;;;;;;;15.77;8.18;;;1.00;90.30;;;;;;5033116;28;20428;-82
2023/03/16 06:57:25;;;;;;;17.35;9.25;;;1.00;90.30;;;;;;5017576;28;20037;-79
2023/03/16 06:59:51;;;;;;;16.30;9.32;;;1.00;90.30;;;;;;4998970;28;20045;-80
2023/03/16 07:02:18;;;;;;;16.98;8.38;;;1.00;90.30;;;;;;5031910;28;20064;-80
2023/03/16 07:04:44;;;;;;;16.20;9.23;;;1.00;90.30;;;;;;5001683;28;20568;-82
2023/03/16 07:07:10;;;;;;;18.15;8.93;;;1.10;90.30;;;;;;4990431;28;20049;-82
2023/03/16 07:09:36;;;;;;;21.48;11.13;;;1.10;90.30;;;;;;5020766;28;20719;-80
2023/03/16 07:12:02;;;;;;;19.10;11.38;;;1.10;90.30;;;;;;5030657;28;20041;-82
2023/03/16 07:14:27;;;;;;;17.73;11.02;;;1.10;90.30;;;;;;5003331;28;20493;-81
2023/03/16 07:16:53;;;;;;;17.10;9.68;;;1.10;90.30;;;;;;5024484;28;20043;-81
2023/03/16 07:19:19;;;;;;;15.27;8.98;;;1.10;90.30;;;;;;5012700;28;20770;-82
2023/03/16 07:21:44;;;;;;;19.23;10.50;;;1.20;90.40;;;;;;5012657;28;20053;-81
2023/03/16 07:24:10;;;;;;;26.25;12.93;;;1.20;90.40;;;;;;5042460;28;20059;-82
2023/03/16 07:26:35;;;;;;;22.08;12.15;;;1.20;90.30;;;;;;5023539;28;20175;-80
2023/03/16 07:29:03;;;;;;;15.98;9.80;;;1.20;90.60;;;;;;5030628;28;20053;-82
2023/03/16 07:31:29;;;;;;;20.02;10.57;;;1.20;90.30;;;;;;5010057;28;20813;-81
2023/03/16 07:33:56;;;;;;;14.75;8.85;;;1.20;90.30;;;;;;4995958;28;20049;-81
2023/03/16 07:36:22;;;;;;;14.73;9.23;;;1.30;90.30;;;;;;5021995;28;20045;-80
2023/03/16 07:38:47;;;;;;;16.98;9.13;;;1.30;90.30;;;;;;4997548;28;20044;-81
2023/03/16 07:41:13;;;;;;;15.82;8.35;;;1.30;90.30;;;;;;5002504;28;20060;-80
2023/03/16 07:43:38;;;;;;;14.93;9.00;;;1.30;90.30;;;;;;5001728;28;20060;-81
2023/03/16 07:46:05;;;;;;;13.35;7.85;;;1.40;90.30;;;;;;5016987;28;20041;-80
2023/03/16 07:48:31;;;;;;;12.30;7.55;;;1.40;90.30;;;;;;5031501;28;20037;-79
2023/03/16 07:50:56;;;;;;;14.32;8.15;;;1.40;90.30;;;;;;5004809;28;20029;-81
2023/03/16 07:53:22;;;;;;;12.20;6.65;;;1.40;90.30;;;;;;5055945;28;20124;-80
2023/03/16 07:55:48;;;;;;;12.73;7.70;;;1.40;90.30;;;;;;5021162;28;20047;-81
2023/03/16 07:58:13;;;;;;;11.82;7.30;;;1.40;90.20;;;;;;5034219;28;20041;-82
2023/03/16 08:00:39;;;;;;;12.57;7.13;;;1.50;90.30;;;;;;5021615;28;20033;-80
2023/03/16 08:03:05;;;;;;;11.10;7.20;;;1.50;90.30;;;;;;5028394;28;20067;-81
2023/03/16 08:05:33;;;;;;;10.45;6.43;;;1.50;90.30;;;;;;5020338;28;20770;-80
2023/03/16 08:08:00;;;;;;;10.73;6.80;;;1.50;90.20;;;;;;5023346;28;20039;-81
2023/03/16 08:10:26;;;;;;;11.15;6.25;;;1.60;90.30;;;;;;5010921;28;20040;-81
2023/03/16 08:12:51;;;;;;;9.68;6.43;;;1.60;90.20;;;;;;5035121;28;20029;-79
2023/03/16 08:15:17;;;;;;;9.52;6.40;;;1.70;90.20;;;;;;5023474;28;20047;-81
2023/03/16 08:17:43;;;;;;;11.98;6.68;;;1.70;90.20;;;;;;5023548;28;20037;-79
2023/03/16 08:20:11;;;;;;;9.82;5.85;;;1.70;90.20;;;;;;5038537;28;20029;-81
2023/03/16 08:22:37;;;;;;;9.88;6.32;;;1.70;90.20;;;;;;5039755;28;20047;-81
2023/03/16 08:25:04;;;;;;;11.32;6.60;;;1.80;90.30;;;;;;5017790;28;20033;-81
2023/03/16 08:27:30;;;;;;;10.18;6.25;;;1.80;90.30;;;;;;5029804;28;20511;-81
2023/03/16 08:29:56;;;;;;;11.88;6.82;;;1.90;90.30;;;;;;5035159;28;20033;-80
2023/03/16 08:32:21;;;;;;;11.52;6.55;;;1.90;90.30;;;;;;5024736;28;20036;-80
2023/03/16 08:34:47;;;;;;;9.82;6.18;;;1.90;90.20;;;;;;4989315;28;20033;-80
2023/03/16 08:37:13;;;;;;;11.77;6.65;;;2.00;90.20;;;;;;5027788;28;20125;-80
2023/03/16 08:39:42;;;;;;;11.75;6.68;;;2.00;90.20;;;;;;5040856;28;20827;-81
2023/03/16 08:42:14;;;;;;;12.40;6.63;;;2.00;90.20;;;;;;5016995;28;20108;-81
2023/03/16 08:44:40;;;;;;;;;;;2.10;90.20;;;;;;5035463;28;20039;-82
2023/03/16 08:47:05;;;;;;;11.77;6.93;;;2.10;90.20;;;;;;5049409;28;19970;-82
2023/03/16 08:49:32;;;;;;;8.85;5.65;;;2.20;90.20;;;;;;5019027;28;20037;-81
2023/03/16 08:51:59;;;;;;;13.45;7.57;;;2.20;90.10;;;;;;5037434;28;20677;-82
2023/03/16 08:54:25;;;;;;;11.43;6.68;;;2.30;90.20;;;;;;5014975;28;20053;-80
2023/03/16 08:56:50;;;;;;;11.98;6.30;;;2.40;90.20;;;;;;5027646;28;20037;-80
2023/03/16 08:59:16;;;;;;;10.85;6.57;;;2.40;90.20;;;;;;5026655;28;20035;-82
2023/03/16 09:01:41;;;;;;;9.88;6.43;;;2.50;90.20;;;;;;5038254;28;20045;-80
2023/03/16 09:04:07;;;;;;;10.40;6.40;;;2.60;90.20;;;;;;5038569;28;20051;-82
2023/03/16 09:06:32;;;;;;;9.32;5.97;;;2.70;90.20;;;;;;5034401;28;20040;-79
2023/03/16 09:08:58;;;;;;;9.55;6.05;;;2.70;90.10;;;;;;5031211;28;20060;-82
2023/03/16 09:11:27;;;;;;;9.85;5.68;;;2.80;90.10;;;;;;5028339;28;20064;-81
2023/03/16 09:13:53;;;;;;;10.02;6.10;;;2.90;90.10;;;;;;5013161;28;20504;-81
2023/03/16 09:16:19;;;;;;;11.80;6.80;;;3.00;90.10;;;;;;5010657;28;20048;-82
2023/03/16 09:18:45;;;;;;;12.55;7.40;;;3.20;90.20;;;;;;5019590;28;20033;-82
2023/03/16 09:21:14;;;;;;;11.45;6.82;;;3.40;90.10;;;;;;5048242;28;20115;-82
2023/03/16 09:23:41;;;;;;;9.25;5.80;;;3.50;90.10;;;;;;5020219;28;20044;-80
2023/03/16 09:26:12;;;;;;;10.75;6.25;;;3.70;90.10;;;;;;5034495;28;21742;-80
2023/03/16 09:28:38;;;;;;;13.50;6.75;;;3.90;90.10;;;;;;5028831;28;20119;-83
2023/03/16 09:31:04;;;;;;;13.15;6.65;;;4.20;90.10;;;;;;5010882;28;20140;-81
2023/03/16 09:33:30;;;;;;;9.82;6.20;;;4.40;90.10;;;;;;5022863;28;20040;-80
2023/03/16 09:35:57;;;;;;;9.90;6.53;;;4.60;90.00;;;;;;5022354;28;20037;-80
2023/03/16 09:38:26;;;;;;;10.00;6.18;;;4.80;89.80;;;;;;5021393;28;20052;-82
2023/03/16 09:41:05;;;;;;;11.10;7.13;;;5.00;89.70;;;;;;5003343;28;20093;-82
2023/03/16 09:44:01;;;;;;;10.68;6.13;;;5.10;89.50;;;;;;5036553;28;20104;-81
2023/03/16 09:46:30;;;;;;;7.22;4.85;;;5.30;89.20;;;;;;5015663;28;20065;-80
2023/03/16 09:48:56;;;;;;;11.00;6.45;;;5.40;88.90;;;;;;5002611;28;20101;-82
2023/03/16 09:51:43;;;;;;;11.43;6.65;;;5.50;88.80;;;;;;5019370;28;20148;-80
2023/03/16 09:54:25;;;;;;;12.00;6.93;;;5.70;88.50;;;;;;5000690;28;20029;-81
2023/03/16 09:56:51;;;;;;;11.55;6.15;;;5.80;88.40;;;;;;4981854;28;20036;-81
2023/03/16 09:59:17;;;;;;;8.57;5.55;;;6.00;88.40;;;;;;5009797;28;21987;-82
2023/03/16 10:02:03;;;;;;;9.18;5.80;;;6.20;88.50;;;;;;4999116;28;20025;-80
2023/03/16 10:04:49;;;;;;;10.05;6.55;;;6.40;88.00;;;;;;5011076;28;20678;-82
2023/03/16 10:07:37;;;;;;;10.13;5.93;;;6.70;87.70;;;;;;5014757;28;20096;-82
2023/03/16 10:10:23;;;;;;;9.27;5.43;;;6.90;87.50;;;;;;5017330;28;20065;-80
2023/03/16 10:12:50;;;;;;;10.43;5.55;;;7.10;87.20;;;;;;5008590;28;20025;-80
2023/03/16 10:15:18;;;;;;;7.75;5.65;;;7.40;87.20;;;;;;4977872;28;20063;-80
2023/03/16 10:17:52;;;;;;;8.32;4.97;;;7.50;86.80;;;;;;4999104;28;20087;-82
2023/03/16 10:20:20;;;;;;;8.20;5.82;;;7.70;86.40;;;;;;4999415;28;21937;-81
2023/03/16 10:22:47;;;;;;;8.77;6.00;;;7.80;86.40;;;;;;5013429;28;20499;-80
2023/03/16 10:25:21;;;;;;;9.57;5.88;;;8.00;86.10;;;;;;4990170;28;20033;-81
2023/03/16 10:27:47;;;;;;;7.78;5.38;;;8.10;85.70;;;;;;4998195;28;20061;-81
2023/03/16 10:30:18;;;;;;;10.30;5.95;;;8.20;85.50;;;;;;4999070;28;20029;-80
2023/03/16 10:32:44;;;;;;;8.75;5.32;;;8.30;85.30;;;;;;5017753;28;20040;-82
2023/03/16 10:35:47;;;;;;;7.32;5.35;;;8.50;84.80;;;;;;4992324;28;20636;-81
2023/03/16 10:38:38;;;;;;;7.93;5.35;;;8.60;84.30;;;;;;5002046;28;20057;-80
2023/03/16 10:41:21;;;;;;;7.35;4.97;;;8.80;84.20;;;;;;5029603;28;20037;-81
2023/03/16 10:43:51;;;;;;;6.63;4.70;;;9.10;84.10;;;;;;5043947;28;20039;-80
2023/03/16 10:46:18;;;;;;;6.80;4.82;;;9.40;85.00;;;;;;5061234;28;20041;-81
2023/03/16 10:48:53;;;;;;;6.97;4.68;;;9.50;83.80;;;;;;5024283;28;20043;-83
2023/03/16 10:51:24;;;;;;;8.60;5.18;;;9.70;82.90;;;;;;5022647;28;20059;-82
2023/03/16 10:53:49;;;;;;;7.18;4.55;;;9.80;82.80;;;;;;5001396;28;20437;-81
2023/03/16 10:56:24;;;;;;;7.05;4.53;;;10.00;82.40;;;;;;5039401;28;20105;-83
2023/03/16 10:58:50;;;;;;;6.28;4.40;;;10.10;81.80;;;;;;5022545;28;20522;-79
2023/03/16 11:01:22;;;;;;;6.43;5.18;;;10.30;82.00;;;;;;5039435;28;20037;-80
2023/03/16 11:03:54;;;;;;;8.70;5.75;;;10.40;81.10;;;;;;5004693;28;20033;-82
2023/03/16 11:06:29;;;;;;;5.78;4.35;;;10.50;80.80;;;;;;5006648;28;20040;-82
2023/03/16 11:09:02;;;;;;;6.18;4.75;;;10.60;80.20;;;;;;4984693;28;20049;-82
2023/03/16 11:11:29;;;;;;;5.20;4.20;;;10.70;80.40;;;;;;5022364;28;20041;-80
2023/03/16 11:13:59;;;;;;;8.32;5.00;;;10.90;80.00;;;;;;5021010;28;20090;-82
2023/03/16 11:16:36;;;;;;;6.05;4.40;;;11.10;79.70;;;;;;5021046;28;20048;-81
2023/03/16 11:19:19;;;;;;;5.82;4.85;;;11.20;79.10;;;;;;5023518;28;20493;-81
2023/03/16 11:21:55;;;;;;;5.93;4.50;;;11.50;78.80;;;;;;5038705;28;20044;-81
2023/03/16 11:24:40;;;;;;;8.98;4.40;;;11.70;78.80;;;;;;5023127;28;20032;-82
2023/03/16 11:27:11;;;;;;;4.80;3.65;;;11.80;78.70;;;;;;5052845;28;20411;-82
2023/03/16 11:29:44;;;;;;;4.82;3.85;;;12.00;78.30;;;;;;4987856;28;20125;-82
2023/03/16 11:32:25;;;;;;;4.75;3.90;;;12.20;77.90;;;;;;5027807;28;20069;-83
2023/03/16 11:34:52;;;;;;;6.47;4.20;;;12.40;77.30;;;;;;4993444;28;20123;-82
2023/03/16 11:37:34;;;;;;;6.78;4.10;;;12.60;77.50;;;;;;4998393;28;20405;-83
2023/03/16 11:40:21;;;;;;;6.05;4.03;;;12.80;76.90;;;;;;5009479;28;20129;-82
2023/03/16 11:42:56;;;;;;;5.00;4.15;;;13.00;75.30;;;;;;5012547;28;20033;-83
2023/03/16 11:45:38;;;;;;;5.13;4.07;;;13.00;75.10;;;;;;5013408;28;20037;-80
2023/03/16 11:48:42;;;;;;;5.82;3.53;;;13.10;74.60;;;;;;4996839;28;20063;-81
2023/03/16 11:51:18;;;;;;;4.13;3.40;;;13.20;73.60;;;;;;5014529;28;20033;-82
2023/03/16 11:53:57;;;;;;;4.65;3.53;;;13.30;73.90;;;;;;5016555;28;20048;-83
2023/03/16 11:56:43;;;;;;;3.72;3.35;;;13.40;73.60;;;;;;5027618;28;20100;-81
2023/03/16 11:59:42;;;;;;;5.32;3.63;;;13.30;72.10;;;;;;4999771;28;20036;-83
2023/03/16 12:02:08;;;;;;;4.65;2.85;;;13.30;70.90;;;;;;5021280;28;20069;-81
2023/03/16 12:05:07;;;;;;;3.20;2.80;;;13.20;72.50;;;;;;5013083;28;20065;-81
2023/03/16 12:07:51;;;;;;;4.57;3.63;;;13.20;71.80;;;;;;4998725;28;20045;-81
2023/03/16 12:10:42;;;;;;;4.03;3.10;;;13.30;71.10;;;;;;5016938;28;20045;-81
2023/03/16 12:13:34;;;;;;;4.10;2.75;;;13.50;71.20;;;;;;5042208;28;20060;-81
2023/03/16 12:16:04;;;;;;;4.72;3.72;;;13.80;71.40;;;;;;5022168;28;20226;-83
2023/03/16 12:18:43;;;;;;;2.45;2.15;;;13.80;71.30;;;;;;5034298;28;20036;-83
2023/03/16 12:21:30;;;;;;;3.65;2.63;;;13.80;70.40;;;;;;5018233;28;20111;-81
2023/03/16 12:24:01;;;;;;;3.67;2.53;;;13.90;70.40;;;;;;5014603;28;20052;-80
2023/03/16 12:26:29;;;;;;;5.63;3.20;;;14.00;70.30;;;;;;5016713;28;20041;-81
2023/03/16 12:28:54;;;;;;;4.43;3.15;;;14.10;70.20;;;;;;5012943;28;20441;-81
2023/03/16 12:31:30;;;;;;;4.32;3.20;;;14.30;69.50;;;;;;5032549;28;20056;-81
2023/03/16 12:34:12;;;;;;;3.78;2.75;;;14.40;67.90;;;;;;5007217;28;20064;-80
2023/03/16 12:36:43;;;;;;;3.08;2.40;;;14.50;68.30;;;;;;5019984;28;20071;-83
2023/03/16 12:39:48;;;;;;;3.40;2.50;;;14.60;68.30;;;;;;5031115;28;20436;-81
2023/03/16 12:42:26;;;;;;;3.40;2.20;;;14.80;67.20;;;;;;5036716;28;20116;-81
2023/03/16 12:45:35;;;;;;;2.95;2.20;;;14.90;67.60;;;;;;5009220;28;20500;-81
2023/03/16 12:48:26;;;;;;;3.75;2.45;;;15.00;66.80;;;;;;4979561;28;20041;-82
2023/03/16 12:50:59;;;;;;;4.63;2.53;;;15.10;67.20;;;;;;4996149;28;20048;-80
2023/03/16 12:53:52;;;;;;;4.00;2.88;;;15.40;67.10;;;;;;4995418;28;20748;-81
2023/03/16 12:56:47;;;;;;;3.20;2.67;;;15.60;65.10;;;;;;5007184;28;20037;-83
2023/03/16 12:59:17;;;;;;;3.10;2.70;;;15.70;64.90;;;;;;4989291;28;20064;-82